Time;durP1;ratioP1;P1;durP2;ratioP2;P2;SDS_P1;SDS_P2;PMS_P1;PMS_P2;Temp;Humidity;BMP_temperature;BMP_pressure;BME280_temperature;BME280_humidity;BME280_pressure;Samples;Min_cycle;Max_cycle;Signal;HPM_P1;HPM_P2
2022/02/10 04:40:57;;;;;;;;;;;;;;;1.39;86.58;100131.31;4965236;28;19993;-83
2022/02/10 04:59:16;;;;;;;;;;;;;;;2.68;97.42;100118.75;4963824;28;19973;-82
2022/02/10 05:08:04;;;;;;;;;;;;;;;3.31;100.00;100105.25;4902721;29;19919;-83
2022/02/10 05:23:22;;;;;;;;;;;;;;;3.04;100.00;100096.72;4964088;28;20353;-83
2022/02/10 05:31:51;;;;;;;;;;;;;;;3.00;100.00;100100.25;4963379;28;19929;-84
2022/02/10 05:34:10;;;;;;;;;;;;;;;3.02;100.00;100101.09;4963189;28;20028;-83
2022/02/10 05:36:38;;;;;;;;;;;;;;;2.94;100.00;100099.44;4960122;28;19922;-83
2022/02/10 08:52:35;;;;;;;;;;;;;;;2.98;80.16;100238.13;4945657;28;20333;-84
2022/02/10 08:57:21;;;;;;;;;;;;;;;3.00;80.31;100241.63;4943937;29;19973;-83
2022/02/10 09:03:10;;;;;;;;;;;;;;;3.01;80.21;100243.34;4944970;29;19918;-83
2022/02/10 09:05:40;;;;;;;;;;;;;;;3.04;80.09;100250.34;4933373;28;19914;-83
2022/02/10 09:13:34;;;;;;;;;;;;;;;3.09;80.06;100261.66;4944856;29;19968;-82
2022/02/10 10:01:21;;;;;;;;;;;;;;;3.37;77.47;100283.34;4943649;29;19919;-83
2022/02/10 10:04:07;;;;;;;;;;;;;;;3.39;77.45;100278.97;4942668;29;19922;-83
2022/02/10 10:09:23;;;;;;;;;;;;;;;3.41;77.48;100282.44;4943871;29;19926;-83
2022/02/10 10:14:49;;;;;;;;;;;;;;;3.44;77.14;100281.56;4943820;29;19978;-84
2022/02/10 10:19:54;;;;;;;;;;;;;;;3.49;77.04;100286.78;4941769;29;19926;-84
2022/02/10 10:26:02;;;;;;;;;;;;;;;3.56;77.12;100293.72;4934517;29;19961;-84
2022/02/10 10:46:58;;;;;;;;;;;;;;;3.67;76.05;100262.19;4947547;28;20014;-83
2022/02/10 10:55:56;;;;;;;;;;;;;;;3.77;75.78;100259.50;4946661;29;20390;-85
2022/02/10 10:59:12;;;;;;;;;;;;;;;3.76;75.68;100268.22;4946926;29;19923;-85
2022/02/10 11:39:28;;;;;;;;;;;;;;;4.22;75.22;100268.75;4945812;29;19933;-83
2022/02/10 11:42:49;;;;;;;;;;;;;;;4.23;75.21;100259.97;4946119;29;19969;-84
2022/02/10 12:29:23;;;;;;;;;;;;;;;4.39;74.93;100271.19;4946738;29;19926;-83
2022/02/10 12:37:24;;;;;;;;;;;;;;;4.67;74.50;100279.66;4944862;29;20457;-83
2022/02/10 14:09:24;;;;;;;;;;;;;;;6.59;100.00;100239.16;4943811;29;20005;-83
2022/02/10 14:17:10;;;;;;;;;;;;;;;6.73;100.00;100239.75;4944315;29;20373;-85
2022/02/10 14:19:43;;;;;;;;;;;;;;;6.72;100.00;100248.53;4946159;29;19926;-85
2022/02/10 14:27:20;;;;;;;;;;;;;;;5.69;100.00;100249.44;4947384;29;19925;-85
2022/02/10 14:29:45;;;;;;;;;;;;;;;4.17;100.00;100256.53;4947730;29;19918;-84
2022/02/10 14:32:13;;;;;;;;;;;;;;;3.69;100.00;100263.94;4947548;29;19928;-84
2022/02/10 14:34:39;;;;;;;;;;;;;;;3.37;97.90;100262.38;4946085;29;19922;-83
2022/02/10 14:37:25;;;;;;;;;;;;;;;3.16;95.69;100263.38;4945219;29;19923;-84
2022/02/10 14:40:02;;;;;;;;;;;;;;;2.93;94.04;100262.59;4947088;29;19941;-84
2022/02/10 15:50:39;;;;;;;;;;;;;;;2.82;98.28;100246.94;4943659;29;20277;-86
2022/02/10 16:19:18;;;;;;;;;;;;;;;2.80;87.67;100246.94;4943939;29;19942;-86
2022/02/10 16:21:56;;;;;;;;;;;;;;;2.80;87.21;100233.84;4945362;29;19919;-85
2022/02/10 16:24:31;;;;;;;;;;;;;;;2.85;86.83;100236.47;4943250;29;20338;-84
2022/02/10 16:26:59;;;;;;;;;;;;;;;2.80;86.21;100228.63;4945515;29;19925;-83
2022/02/10 16:29:27;;;;;;;;;;;;;;;2.80;85.83;100222.53;4943680;29;20293;-84
2022/02/10 16:31:53;;;;;;;;;;;;;;;2.78;86.01;100229.53;4943804;29;20290;-83
2022/02/10 16:34:19;;;;;;;;;;;;;;;2.80;85.81;100225.16;4926780;29;19923;-88
2022/02/10 16:36:45;;;;;;;;;;;;;;;2.79;85.50;100226.00;4941837;29;19933;-85
2022/02/10 16:39:13;;;;;;;;;;;;;;;2.77;85.34;100228.63;4927152;29;19934;-87
2022/02/10 16:41:38;;;;;;;;;;;;;;;2.77;85.07;100225.16;4941993;29;19922;-86
2022/02/10 16:44:04;;;;;;;;;;;;;;;2.79;85.02;100215.53;4929272;29;19934;-86
2022/02/10 16:46:29;;;;;;;;;;;;;;;2.69;84.73;100226.03;4927451;29;19982;-88
2022/02/10 16:48:54;;;;;;;;;;;;;;;2.74;84.64;100228.66;4943350;29;19965;-86
2022/02/10 16:51:22;;;;;;;;;;;;;;;2.76;84.62;100226.91;4927335;29;19923;-86
2022/02/10 16:53:52;;;;;;;;;;;;;;;2.75;84.39;100222.53;4945036;29;19927;-85
2022/02/10 16:56:23;;;;;;;;;;;;;;;2.74;84.21;100218.19;4942729;29;19927;-83
2022/02/10 17:04:57;;;;;;;;;;;;;;;2.79;83.93;100216.41;4883897;29;19928;-86
2022/02/10 17:18:20;;;;;;;;;;;;;;;2.69;84.86;100206.88;4943501;29;19978;-86
2022/02/10 17:28:55;;;;;;;;;;;;;;;2.64;84.82;100217.34;4942915;29;20446;-85
2022/02/10 17:36:39;;;;;;;;;;;;;;;2.66;84.63;100199.03;4942894;29;20577;-84
2022/02/10 17:44:49;;;;;;;;;;;;;;;2.67;84.48;100183.31;4944514;28;19921;-85
2022/02/10 17:52:56;;;;;;;;;;;;;;;2.67;84.07;100190.31;4946401;29;19942;-85
2022/02/10 17:55:21;;;;;;;;;;;;;;;2.66;83.89;100192.03;4946589;29;20444;-84
2022/02/10 17:57:47;;;;;;;;;;;;;;;2.65;83.75;100187.69;4946715;29;19923;-87
2022/02/10 18:00:12;;;;;;;;;;;;;;;2.67;83.64;100191.16;4930140;29;19922;-86
2022/02/10 18:02:38;;;;;;;;;;;;;;;2.65;83.48;100192.94;4929421;29;19922;-84
2022/02/10 18:05:04;;;;;;;;;;;;;;;2.64;83.45;100190.31;4946652;29;19922;-84
2022/02/10 18:07:29;;;;;;;;;;;;;;;2.67;83.31;100188.56;4929887;29;19923;-85
2022/02/10 18:10:29;;;;;;;;;;;;;;;2.66;83.10;100192.03;4947329;29;20053;-86
2022/02/10 18:13:20;;;;;;;;;;;;;;;2.65;82.79;100190.31;4946470;28;19927;-86
2022/02/10 18:15:45;;;;;;;;;;;;;;;2.66;82.61;100192.03;4947528;29;20411;-86
2022/02/10 18:18:21;;;;;;;;;;;;;;;2.66;82.61;100196.41;4946445;29;19993;-83
2022/02/10 18:20:53;;;;;;;;;;;;;;;2.69;82.36;100199.88;4946371;29;19937;-84
2022/02/10 18:23:59;;;;;;;;;;;;;;;2.66;82.23;100197.25;4946073;29;20437;-86
2022/02/10 18:26:11;;;;;;;;;;;;;;;2.66;82.01;100193.78;4944491;29;19970;-83
2022/02/10 18:28:54;;;;;;;;;;;;;;;2.68;81.80;100202.50;4947010;29;19923;-84
2022/02/10 19:06:28;;;;;;;;;;;;;;;2.70;80.10;100167.59;4947402;29;19969;-87
2022/02/10 19:08:58;;;;;;;;;;;;;;;2.70;80.22;100178.06;4945536;29;19961;-85
2022/02/10 19:11:23;;;;;;;;;;;;;;;2.71;79.88;100177.22;4946293;29;19966;-85
2022/02/10 19:13:53;;;;;;;;;;;;;;;2.70;79.67;100174.59;4945429;29;20347;-86
2022/02/10 19:16:18;;;;;;;;;;;;;;;2.73;79.59;100170.22;4929529;29;19927;-86
2022/02/10 19:18:43;;;;;;;;;;;;;;;2.71;79.64;100177.22;4945801;29;19920;-83
2022/02/10 19:21:08;;;;;;;;;;;;;;;2.69;79.23;100167.59;4944887;28;20017;-83
2022/02/10 19:23:34;;;;;;;;;;;;;;;2.70;79.40;100172.84;4945105;29;19918;-84
2022/02/10 19:26:00;;;;;;;;;;;;;;;2.70;79.13;100172.84;4942445;29;19923;-82
2022/02/10 19:28:25;;;;;;;;;;;;;;;2.69;78.91;100165.84;4945912;28;19933;-83
2022/02/10 19:30:50;;;;;;;;;;;;;;;2.71;78.64;100161.50;4946628;28;20369;-85
2022/02/10 19:33:16;;;;;;;;;;;;;;;2.71;78.71;100171.09;4944679;29;20055;-85
2022/02/10 19:35:47;;;;;;;;;;;;;;;2.74;78.72;100165.84;4946023;29;20412;-84
2022/02/10 19:38:19;;;;;;;;;;;;;;;2.74;78.42;100171.06;4945575;28;19929;-87
2022/02/10 19:40:49;;;;;;;;;;;;;;;2.71;78.28;100174.59;4945183;28;20273;-86
2022/02/10 19:43:15;;;;;;;;;;;;;;;2.74;78.23;100171.06;4929326;28;19930;-84
2022/02/10 19:45:40;;;;;;;;;;;;;;;2.72;78.08;100172.84;4946375;28;20048;-85
2022/02/10 19:48:06;;;;;;;;;;;;;;;2.78;78.06;100169.34;4944723;29;20008;-83
2022/02/10 19:50:32;;;;;;;;;;;;;;;2.79;78.17;100163.19;4943156;29;19926;-85
2022/02/10 19:53:01;;;;;;;;;;;;;;;2.77;78.16;100171.06;4946325;29;20366;-83
2022/02/10 19:55:27;;;;;;;;;;;;;;;2.78;78.08;100169.34;4944899;29;19923;-85
2022/02/10 19:57:56;;;;;;;;;;;;;;;2.80;78.05;100165.81;4927964;29;19958;-84
2022/02/10 20:00:26;;;;;;;;;;;;;;;2.79;78.04;100161.44;4944682;28;20362;-84
2022/02/10 20:02:51;;;;;;;;;;;;;;;2.82;78.09;100163.19;4927489;29;20321;-83
2022/02/10 20:05:22;;;;;;;;;;;;;;;2.85;77.94;100163.16;4927312;29;19922;-84
2022/02/10 20:07:51;;;;;;;;;;;;;;;2.86;77.81;100159.69;4927120;29;19933;-83
2022/02/10 20:10:17;;;;;;;;;;;;;;;2.83;78.01;100159.69;4945219;29;19923;-85
2022/02/10 20:12:42;;;;;;;;;;;;;;;2.86;77.84;100165.78;4945143;29;19951;-83
2022/02/10 20:15:10;;;;;;;;;;;;;;;2.85;77.59;100163.16;4943686;29;20271;-84
2022/02/10 20:17:35;;;;;;;;;;;;;;;2.88;77.54;100158.78;4945129;29;19923;-84
2022/02/10 20:20:02;;;;;;;;;;;;;;;2.86;77.35;100163.16;4941370;29;19927;-84
2022/02/10 20:22:27;;;;;;;;;;;;;;;2.89;77.25;100159.66;4944526;29;19923;-85
2022/02/10 20:24:58;;;;;;;;;;;;;;;2.89;77.04;100155.28;4943879;29;19922;-83
2022/02/10 20:27:23;;;;;;;;;;;;;;;2.89;76.90;100155.28;4945236;29;19918;-86
2022/02/10 20:29:50;;;;;;;;;;;;;;;2.89;76.56;100159.66;4943603;29;19926;-84
2022/02/10 20:32:15;;;;;;;;;;;;;;;2.91;76.48;100160.53;4944980;28;21223;-85
2022/02/10 20:34:40;;;;;;;;;;;;;;;2.93;76.32;100157.91;4943156;29;20013;-82
2022/02/10 20:37:06;;;;;;;;;;;;;;;2.91;76.08;100150.06;4943413;29;20295;-83
2022/02/10 20:39:31;;;;;;;;;;;;;;;2.94;76.25;100142.19;4944123;28;19974;-84
2022/02/10 20:42:05;;;;;;;;;;;;;;;2.94;75.94;100143.94;4943642;29;19922;-87
2022/02/10 20:44:31;;;;;;;;;;;;;;;2.95;75.89;100148.28;4945604;28;19919;-83
2022/02/10 20:46:57;;;;;;;;;;;;;;;2.97;75.93;100144.78;4943517;29;19930;-86
2022/02/10 20:49:27;;;;;;;;;;;;;;;2.96;75.75;100145.66;4943992;29;19923;-85
2022/02/10 20:51:52;;;;;;;;;;;;;;;2.99;75.61;100143.03;4944011;29;20048;-84
2022/02/10 20:54:18;;;;;;;;;;;;;;;3.03;75.51;100147.38;4926287;29;20029;-87
2022/02/10 20:56:45;;;;;;;;;;;;;;;3.01;75.54;100151.72;4942453;29;19925;-86
2022/02/10 20:59:32;;;;;;;;;;;;;;;3.02;75.24;100145.63;4926442;29;19923;-86
2022/02/10 21:02:04;;;;;;;;;;;;;;;3.05;75.08;100142.13;4943865;29;20502;-84
2022/02/10 21:04:32;;;;;;;;;;;;;;;3.08;75.14;100140.34;4922583;29;20469;-86
2022/02/10 21:07:12;;;;;;;;;;;;;;;3.09;75.16;100142.09;4926815;29;19934;-86
2022/02/10 21:09:53;;;;;;;;;;;;;;;3.11;75.03;100133.34;4927703;29;19918;-84
2022/02/10 21:12:18;;;;;;;;;;;;;;;3.13;74.91;100132.47;4926966;29;19922;-84
2022/02/10 21:14:44;;;;;;;;;;;;;;;3.14;74.73;100133.31;4926996;29;19985;-84
2022/02/10 21:17:12;;;;;;;;;;;;;;;3.13;74.61;100132.47;4943617;29;19961;-84
2022/02/10 21:19:38;;;;;;;;;;;;;;;3.17;74.68;100133.31;4925564;29;19926;-83
2022/02/10 21:22:09;;;;;;;;;;;;;;;3.17;74.54;100122.81;4942693;29;19927;-84
2022/02/10 21:24:39;;;;;;;;;;;;;;;3.15;74.36;100127.22;4943232;29;20440;-84
2022/02/10 21:27:27;;;;;;;;;;;;;;;3.18;74.16;100127.19;4926164;29;19934;-85
2022/02/10 21:30:02;;;;;;;;;;;;;;;3.20;74.15;100128.03;4925988;29;20366;-85
2022/02/10 21:32:30;;;;;;;;;;;;;;;3.21;74.24;100130.66;4926800;29;19927;-85
2022/02/10 21:40:33;;;;;;;;;;;;;;;3.24;74.01;100127.16;4935968;29;20405;-87
2022/02/10 21:52:30;;;;;;;;;;;;;;;3.30;73.75;100134.94;4943361;29;19919;-83
2022/02/10 22:20:12;;;;;;;;;;;;;;;3.41;72.77;100124.38;4939811;29;20302;-85
2022/02/10 22:22:49;;;;;;;;;;;;;;;3.49;72.99;100119.09;4924555;29;19926;-87
2022/02/10 22:25:15;;;;;;;;;;;;;;;3.47;72.80;100118.25;4943490;29;19919;-83
2022/02/10 22:27:45;;;;;;;;;;;;;;;3.50;72.59;100120.84;4925566;29;19978;-85
2022/02/10 22:30:19;;;;;;;;;;;;;;;3.52;72.69;100108.59;4926600;29;19973;-84
2022/02/10 22:33:03;;;;;;;;;;;;;;;3.49;72.48;100116.47;4926157;29;19927;-85
2022/02/10 22:35:32;;;;;;;;;;;;;;;3.53;72.34;100126.06;4940999;29;19999;-83
2022/02/10 22:37:57;;;;;;;;;;;;;;;3.55;72.13;100125.13;4943328;29;19922;-82
2022/02/10 22:43:23;;;;;;;;;;;;;;;3.60;72.21;100125.09;4871349;29;20399;-85
2022/02/10 22:45:48;;;;;;;;;;;;;;;3.61;71.97;100127.72;4916809;29;19941;-85
2022/02/10 22:48:14;;;;;;;;;;;;;;;3.61;71.93;100129.47;4945844;29;19918;-83
2022/02/10 22:50:39;;;;;;;;;;;;;;;3.62;71.96;100129.47;4946363;29;19918;-83
2022/02/10 22:53:04;;;;;;;;;;;;;;;3.61;71.83;100132.94;4945829;29;20287;-83
2022/02/10 22:55:30;;;;;;;;;;;;;;;3.63;71.84;100125.94;4928865;29;20037;-82
2022/02/10 22:57:55;;;;;;;;;;;;;;;3.66;71.90;100126.81;4945508;29;19922;-85
2022/02/10 23:00:34;;;;;;;;;;;;;;;3.69;71.73;100132.88;4923265;29;19938;-86
2022/02/10 23:02:59;;;;;;;;;;;;;;;3.72;71.77;100129.34;4928769;29;19926;-83
2022/02/10 23:05:24;;;;;;;;;;;;;;;3.72;71.57;100132.84;4928174;29;19927;-83
2022/02/10 23:07:58;;;;;;;;;;;;;;;3.72;71.67;100132.84;4945402;29;20454;-84
2022/02/10 23:13:05;;;;;;;;;;;;;;;3.77;71.82;100131.06;4944498;29;19928;-83
2022/02/10 23:15:35;;;;;;;;;;;;;;;3.81;71.92;100138.03;4944993;29;20009;-83
2022/02/10 23:18:01;;;;;;;;;;;;;;;3.83;72.15;100135.38;4945094;29;19934;-85
2022/02/10 23:20:26;;;;;;;;;;;;;;;3.85;72.12;100124.88;4945333;29;19923;-86
2022/02/10 23:22:53;;;;;;;;;;;;;;;3.86;72.05;100130.13;4946784;29;19930;-83
2022/02/10 23:25:19;;;;;;;;;;;;;;;3.89;72.00;100137.06;4929419;29;19926;-85
2022/02/10 23:27:44;;;;;;;;;;;;;;;3.88;72.07;100132.69;4943691;29;19930;-84
2022/02/10 23:30:09;;;;;;;;;;;;;;;3.91;71.92;100141.41;4928383;29;19977;-86
2022/02/10 23:32:34;;;;;;;;;;;;;;;3.93;71.95;100146.66;4928141;29;20350;-83
2022/02/10 23:35:03;;;;;;;;;;;;;;;3.95;72.03;100142.25;4944952;29;20006;-84
2022/02/10 23:37:30;;;;;;;;;;;;;;;3.97;72.07;100156.19;4946418;29;19939;-85
